Time;durP1;ratioP1;P1;durP2;ratioP2;P2;SDS_P1;SDS_P2;PMS_P1;PMS_P2;Temp;Humidity;BMP_temperature;BMP_pressure;BME280_temperature;BME280_humidity;BME280_pressure;Samples;Min_cycle;Max_cycle;Signal;HPM_P1;HPM_P2
2023/04/25 00:01:26;;;;;;;2.33;0.90;;;15.40;69.90;;;;;;10394759;28;20029;-59
2023/04/25 00:06:27;;;;;;;2.05;1.00;;;15.40;70.10;;;;;;10403621;28;20107;-58
2023/04/25 00:11:27;;;;;;;3.30;1.30;;;15.40;70.10;;;;;;10404743;28;20018;-59
2023/04/25 00:16:33;;;;;;;1.85;1.00;;;15.40;70.00;;;;;;10409694;28;20053;-58
2023/04/25 00:21:35;;;;;;;3.63;1.65;;;15.40;69.80;;;;;;10396371;28;20049;-57
2023/04/25 00:26:35;;;;;;;4.40;1.30;;;15.40;70.00;;;;;;10384631;28;20049;-58
2023/04/25 00:31:36;;;;;;;2.72;0.98;;;15.40;70.50;;;;;;10372160;28;20113;-58
2023/04/25 00:36:37;;;;;;;2.95;1.33;;;15.30;70.10;;;;;;10369455;28;20115;-58
2023/04/25 00:41:39;;;;;;;2.75;1.15;;;15.30;70.10;;;;;;10369317;28;20117;-59
2023/04/25 00:46:40;;;;;;;1.30;0.90;;;15.30;69.70;;;;;;10367911;28;20172;-58
2023/04/25 00:51:41;;;;;;;3.90;1.25;;;15.30;70.10;;;;;;10367460;28;20465;-59
2023/04/25 00:56:42;;;;;;;4.13;2.20;;;15.30;69.80;;;;;;10368999;28;20041;-59
2023/04/25 01:01:43;;;;;;;3.50;1.40;;;15.30;70.00;;;;;;10367309;28;20030;-58
2023/04/25 01:06:44;;;;;;;4.30;0.98;;;15.30;69.60;;;;;;10368266;28;20054;-58
2023/04/25 01:11:45;;;;;;;3.47;1.50;;;15.30;69.80;;;;;;10350604;28;20029;-58
2023/04/25 01:16:46;;;;;;;2.38;1.45;;;15.30;69.80;;;;;;10367971;28;20104;-58
2023/04/25 01:21:47;;;;;;;3.90;1.40;;;15.30;69.80;;;;;;10367643;28;20026;-58
2023/04/25 01:26:50;;;;;;;2.03;0.90;;;15.20;69.70;;;;;;10380487;28;20429;-57
2023/04/25 01:31:52;;;;;;;5.13;1.25;;;15.20;70.00;;;;;;10380209;28;20652;-58
2023/04/25 01:36:53;;;;;;;2.75;1.20;;;15.20;70.00;;;;;;10367426;28;20022;-59
2023/04/25 01:41:54;;;;;;;2.90;0.90;;;15.20;69.90;;;;;;10366747;28;20060;-59
2023/04/25 01:46:55;;;;;;;2.05;1.23;;;15.20;69.80;;;;;;10366628;28;20034;-58
2023/04/25 01:51:56;;;;;;;2.90;1.13;;;15.20;69.90;;;;;;10366656;28;20473;-59
2023/04/25 01:56:57;;;;;;;3.58;1.20;;;15.20;69.70;;;;;;10366334;28;20026;-58
2023/04/25 02:01:58;;;;;;;1.67;0.93;;;15.20;69.70;;;;;;10361879;28;20044;-58
2023/04/25 02:06:59;;;;;;;3.83;1.52;;;15.20;70.00;;;;;;10365862;28;20139;-58
2023/04/25 02:12:00;;;;;;;3.15;1.30;;;15.10;69.60;;;;;;10365756;28;20393;-58
2023/04/25 02:17:00;;;;;;;1.75;1.02;;;15.20;69.80;;;;;;10364445;28;20029;-59
2023/04/25 02:22:01;;;;;;;1.63;0.70;;;15.10;69.50;;;;;;10377864;28;20071;-59
2023/04/25 02:27:02;;;;;;;3.25;1.48;;;15.20;69.60;;;;;;10375033;28;20452;-59
2023/04/25 02:32:03;;;;;;;3.20;1.27;;;15.10;69.60;;;;;;10365357;28;20026;-58
2023/04/25 02:37:04;;;;;;;1.90;0.93;;;15.10;69.80;;;;;;10364343;28;20104;-59
2023/04/25 02:42:05;;;;;;;1.80;1.08;;;15.10;69.60;;;;;;10364491;28;20052;-58
2023/04/25 02:47:05;;;;;;;3.25;1.48;;;15.10;69.60;;;;;;10363318;28;20677;-59
2023/04/25 02:52:06;;;;;;;4.18;1.33;;;15.10;69.40;;;;;;10363141;28;20060;-58
2023/04/25 02:57:07;;;;;;;2.63;1.20;;;15.30;68.90;;;;;;10364397;28;20022;-58
2023/04/25 03:02:08;;;;;;;2.67;1.40;;;15.70;67.60;;;;;;10362908;28;20056;-59
2023/04/25 03:07:08;;;;;;;2.95;1.38;;;16.00;66.30;;;;;;10362668;28;20121;-58
2023/04/25 03:12:10;;;;;;;1.98;1.20;;;16.20;65.60;;;;;;10388947;28;20054;-58
2023/04/25 03:17:10;;;;;;;1.63;0.90;;;16.30;65.40;;;;;;10362874;28;20030;-59
2023/04/25 03:22:11;;;;;;;3.17;1.30;;;16.30;65.40;;;;;;10363743;28;20065;-59
2023/04/25 03:27:11;;;;;;;3.92;1.83;;;16.30;65.70;;;;;;10380908;28;20037;-59
2023/04/25 03:32:12;;;;;;;3.80;1.52;;;16.20;65.70;;;;;;10386952;28;20089;-58
2023/04/25 03:37:13;;;;;;;2.15;1.15;;;16.20;65.80;;;;;;10364131;28;20540;-58
2023/04/25 03:42:13;;;;;;;6.03;1.65;;;16.10;66.10;;;;;;10375402;28;20049;-57
2023/04/25 03:47:14;;;;;;;3.15;1.25;;;16.00;66.30;;;;;;10365451;28;20136;-57
2023/04/25 03:52:15;;;;;;;2.92;1.05;;;16.00;66.50;;;;;;10371321;28;20018;-58
2023/04/25 03:57:16;;;;;;;2.85;1.88;;;16.00;66.30;;;;;;10371245;28;20056;-58
2023/04/25 04:02:18;;;;;;;3.35;1.17;;;16.20;66.00;;;;;;10370514;28;20111;-58
2023/04/25 04:07:18;;;;;;;3.45;1.67;;;16.10;65.80;;;;;;10381941;28;20049;-59
2023/04/25 04:12:19;;;;;;;2.70;1.40;;;16.10;66.10;;;;;;10385580;28;20020;-58
2023/04/25 04:17:20;;;;;;;2.28;1.10;;;16.00;66.30;;;;;;10391128;28;20097;-59
2023/04/25 04:22:21;;;;;;;2.33;1.30;;;16.00;66.50;;;;;;10388293;28;20128;-58
2023/04/25 04:27:22;;;;;;;2.88;1.10;;;15.90;66.80;;;;;;10388058;28;20065;-58
2023/04/25 04:32:23;;;;;;;2.45;1.27;;;15.90;66.70;;;;;;10382678;28;20361;-58
2023/04/25 04:37:24;;;;;;;2.40;1.10;;;15.90;66.60;;;;;;10386988;28;20026;-58
2023/04/25 04:42:25;;;;;;;3.72;1.17;;;15.90;66.70;;;;;;10375515;28;20097;-58
2023/04/25 04:47:30;;;;;;;7.38;1.88;;;15.90;66.70;;;;;;10384675;28;20343;-57
2023/04/25 04:52:31;;;;;;;5.53;1.27;;;16.00;66.20;;;;;;10382850;28;20374;-59
2023/04/25 04:57:32;;;;;;;5.00;1.10;;;16.20;67.20;;;;;;10370496;28;20049;-58
2023/04/25 05:02:33;;;;;;;4.70;1.50;;;16.30;67.00;;;;;;10368229;28;20025;-58
2023/04/25 05:07:34;;;;;;;6.10;1.65;;;16.20;67.30;;;;;;10380251;28;20041;-61
2023/04/25 05:12:35;;;;;;;6.05;1.73;;;16.20;67.60;;;;;;10368174;28;20010;-61
2023/04/25 05:17:35;;;;;;;8.25;1.70;;;16.20;68.20;;;;;;10402454;28;20109;-59
2023/04/25 05:22:36;;;;;;;8.95;2.65;;;16.10;68.10;;;;;;10367963;28;20030;-56
2023/04/25 05:27:37;;;;;;;16.70;4.00;;;16.00;67.90;;;;;;10383164;28;20121;-59
2023/04/25 05:32:37;;;;;;;15.23;3.15;;;16.00;68.10;;;;;;10386633;28;20022;-59
2023/04/25 05:37:38;;;;;;;24.60;4.65;;;16.00;68.00;;;;;;10382385;28;20628;-58
2023/04/25 05:42:39;;;;;;;24.15;4.70;;;15.90;69.70;;;;;;10367083;28;20053;-58
2023/04/25 05:47:40;;;;;;;20.70;5.40;;;15.80;70.30;;;;;;10379569;28;20038;-58
2023/04/25 05:52:40;;;;;;;18.13;4.72;;;15.80;70.30;;;;;;10366967;28;20018;-57
2023/04/25 05:57:42;;;;;;;30.08;5.13;;;15.70;69.70;;;;;;10365049;28;20112;-57
2023/04/25 06:02:43;;;;;;;40.22;6.07;;;15.80;69.90;;;;;;10381085;28;20030;-59
2023/04/25 06:07:44;;;;;;;31.60;5.88;;;15.70;70.60;;;;;;10382367;28;20370;-58
2023/04/25 06:12:45;;;;;;;30.48;4.38;;;15.70;70.40;;;;;;10386571;28;20018;-56
2023/04/25 06:17:45;;;;;;;18.77;4.15;;;15.80;69.60;;;;;;10365590;28;20030;-47
2023/04/25 06:22:46;;;;;;;40.40;6.93;;;15.70;69.10;;;;;;10382437;28;20053;-58
2023/04/25 06:27:47;;;;;;;30.52;6.20;;;15.60;70.20;;;;;;10380437;28;20053;-57
2023/04/25 06:32:47;;;;;;;24.30;6.35;;;15.60;70.20;;;;;;10371340;28;20521;-57
2023/04/25 06:37:48;;;;;;;23.33;5.38;;;15.60;70.20;;;;;;10363537;28;20119;-58
2023/04/25 06:42:48;;;;;;;24.35;5.43;;;15.50;70.00;;;;;;10362406;28;20489;-57
2023/04/25 06:47:49;;;;;;;15.65;4.20;;;15.50;69.80;;;;;;10363876;28;20065;-58
2023/04/25 06:52:50;;;;;;;13.20;4.00;;;15.50;69.60;;;;;;10364539;28;20061;-57
2023/04/25 06:57:51;;;;;;;16.50;4.68;;;15.50;69.60;;;;;;10363093;28;20032;-57
2023/04/25 07:02:51;;;;;;;18.50;3.35;;;15.50;69.50;;;;;;10361690;28;20460;-58
2023/04/25 07:07:52;;;;;;;16.02;2.90;;;15.50;68.40;;;;;;10361716;28;20127;-57
2023/04/25 07:12:53;;;;;;;14.02;3.22;;;15.60;68.20;;;;;;10362853;28;20113;-58
2023/04/25 07:17:53;;;;;;;11.98;3.38;;;15.60;68.10;;;;;;10371574;28;20100;-57
2023/04/25 07:22:54;;;;;;;9.43;3.65;;;15.60;68.20;;;;;;10383225;28;20108;-56
2023/04/25 07:27:55;;;;;;;10.98;2.38;;;15.60;68.00;;;;;;10393549;28;20049;-58
2023/04/25 07:32:56;;;;;;;7.45;2.72;;;15.50;67.90;;;;;;10389909;28;20098;-57
2023/04/25 07:37:56;;;;;;;7.55;2.63;;;15.70;67.60;;;;;;10396800;28;20076;-58
2023/04/25 07:42:57;;;;;;;8.55;2.60;;;15.70;67.30;;;;;;10385813;28;20057;-57
2023/04/25 07:47:58;;;;;;;6.28;2.30;;;15.70;67.30;;;;;;10386122;28;20122;-57
2023/04/25 07:52:58;;;;;;;9.88;2.63;;;15.70;67.20;;;;;;10369830;28;20014;-57
2023/04/25 07:57:59;;;;;;;6.95;2.33;;;15.70;67.30;;;;;;10398057;28;20050;-58
2023/04/25 08:03:00;;;;;;;9.15;2.40;;;15.70;67.30;;;;;;10401016;28;20127;-58
2023/04/25 08:08:02;;;;;;;19.33;4.75;;;15.60;68.00;;;;;;10406073;28;20116;-57
2023/04/25 08:13:02;;;;;;;12.40;2.53;;;15.70;67.70;;;;;;10370971;28;20515;-57
2023/04/25 08:18:03;;;;;;;18.08;3.72;;;15.90;67.40;;;;;;10388186;28;20123;-59
2023/04/25 08:23:04;;;;;;;10.00;2.50;;;15.90;67.20;;;;;;10388525;28;20380;-58
2023/04/25 08:28:06;;;;;;;18.73;4.15;;;16.00;66.90;;;;;;10387152;28;20117;-58
2023/04/25 08:33:06;;;;;;;19.63;4.43;;;15.90;66.90;;;;;;10389805;28;20017;-59
2023/04/25 08:38:07;;;;;;;16.80;3.90;;;15.80;67.90;;;;;;10410582;28;20373;-59
2023/04/25 08:43:11;;;;;;;36.17;9.23;;;15.80;67.80;;;;;;10391875;28;20698;-58
2023/04/25 08:48:14;;;;;;;29.95;8.95;;;15.90;69.90;;;;;;10401639;28;20034;-58
2023/04/25 08:53:19;;;;;;;24.52;8.20;;;15.80;70.20;;;;;;10409848;28;20025;-57
2023/04/25 08:58:20;;;;;;;33.83;7.68;;;15.80;69.00;;;;;;10409844;28;20025;-58
2023/04/25 09:03:20;;;;;;;27.30;7.55;;;15.80;68.70;;;;;;10394671;28;20207;-58
2023/04/25 09:08:21;;;;;;;34.50;6.45;;;15.70;68.20;;;;;;10407695;28;20039;-58
2023/04/25 09:13:28;;;;;;;26.13;5.63;;;15.80;67.70;;;;;;10399233;28;20097;-57
2023/04/25 09:18:34;;;;;;;19.33;4.78;;;15.80;67.20;;;;;;10395587;28;20033;-58
2023/04/25 09:23:45;;;;;;;17.65;4.65;;;15.70;66.80;;;;;;10373553;28;20026;-58
2023/04/25 09:28:47;;;;;;;25.00;4.57;;;15.70;66.40;;;;;;10391204;28;20056;-57
2023/04/25 09:33:48;;;;;;;20.27;3.47;;;15.70;66.20;;;;;;10385410;28;20057;-58
2023/04/25 09:38:48;;;;;;;15.65;3.92;;;15.70;66.00;;;;;;10379506;28;20127;-58
2023/04/25 09:43:50;;;;;;;20.25;4.45;;;15.70;66.00;;;;;;10373777;28;20521;-58
2023/04/25 09:48:53;;;;;;;31.58;4.20;;;15.70;65.70;;;;;;10392906;28;20013;-58
2023/04/25 09:53:54;;;;;;;20.75;3.78;;;15.70;65.50;;;;;;10379032;28;20424;-57
2023/04/25 09:58:55;;;;;;;12.02;3.53;;;15.70;65.60;;;;;;10386097;28;20101;-56
2023/04/25 10:03:57;;;;;;;13.57;3.60;;;15.80;65.40;;;;;;10397738;28;20055;-58
2023/04/25 10:08:58;;;;;;;15.35;2.85;;;15.80;64.40;;;;;;10405300;28;20449;-57
2023/04/25 10:14:00;;;;;;;25.60;3.47;;;15.90;64.70;;;;;;10381156;28;20593;-56
2023/04/25 10:19:02;;;;;;;28.17;4.72;;;15.90;65.10;;;;;;10386390;28;20128;-58
2023/04/25 10:24:03;;;;;;;16.10;3.90;;;15.90;66.00;;;;;;10388758;28;20108;-57
2023/04/25 10:29:04;;;;;;;18.10;2.78;;;15.90;66.40;;;;;;10380128;28;20591;-58
2023/04/25 10:34:05;;;;;;;22.80;3.70;;;16.00;66.40;;;;;;10393099;28;20052;-60
2023/04/25 10:39:08;;;;;;;17.95;4.10;;;16.30;66.40;;;;;;10405538;28;20032;-58
2023/04/25 10:44:09;;;;;;;15.30;3.80;;;16.30;66.40;;;;;;10405117;28;20473;-59
2023/04/25 10:49:10;;;;;;;19.58;4.53;;;16.30;66.40;;;;;;10390567;28;20108;-61
2023/04/25 10:54:12;;;;;;;18.95;3.83;;;16.20;66.50;;;;;;10403399;28;20627;-58
2023/04/25 10:59:18;;;;;;;21.08;4.07;;;16.10;66.80;;;;;;10384713;28;20037;-58
2023/04/25 11:04:31;;;;;;;19.45;4.00;;;16.10;67.70;;;;;;10386536;28;20084;-58
2023/04/25 11:09:35;;;;;;;21.02;4.05;;;16.10;68.30;;;;;;10364252;28;20632;-59
2023/04/25 11:14:36;;;;;;;17.35;3.67;;;16.30;66.90;;;;;;10364059;28;20075;-58
2023/04/25 11:19:37;;;;;;;13.00;3.03;;;16.20;67.60;;;;;;10376029;28;20022;-60
2023/04/25 11:24:37;;;;;;;11.85;3.08;;;16.10;68.20;;;;;;10369850;28;20030;-57
2023/04/25 11:29:38;;;;;;;12.73;4.07;;;16.10;68.60;;;;;;10386554;28;20410;-58
2023/04/25 11:34:39;;;;;;;16.65;2.78;;;16.10;67.90;;;;;;10369521;28;20030;-59
2023/04/25 11:39:45;;;;;;;14.73;3.25;;;16.10;67.40;;;;;;10362343;28;20484;-58
2023/04/25 11:44:46;;;;;;;14.02;2.28;;;16.20;67.50;;;;;;10377827;28;20033;-58
2023/04/25 11:49:48;;;;;;;24.42;4.45;;;16.30;67.20;;;;;;10374825;28;20049;-58
2023/04/25 11:54:49;;;;;;;11.55;2.72;;;16.30;67.00;;;;;;10389815;28;20448;-56
2023/04/25 11:59:49;;;;;;;10.75;2.88;;;16.30;67.00;;;;;;10403764;28;20061;-60
2023/04/25 12:04:50;;;;;;;9.20;1.98;;;16.20;67.00;;;;;;10403687;28;20040;-58
2023/04/25 12:09:53;;;;;;;10.55;2.47;;;16.10;66.90;;;;;;10394270;28;20077;-58
2023/04/25 12:14:55;;;;;;;18.75;3.28;;;16.10;67.20;;;;;;10411486;28;20025;-54
2023/04/25 12:19:55;;;;;;;15.18;3.15;;;16.00;67.10;;;;;;10399919;28;20037;-58
2023/04/25 12:24:58;;;;;;;12.68;2.42;;;16.00;67.20;;;;;;10376755;28;20751;-58
2023/04/25 12:29:59;;;;;;;29.50;4.20;;;16.00;67.40;;;;;;10398539;28;20014;-58
2023/04/25 12:34:59;;;;;;;20.23;2.70;;;15.90;67.50;;;;;;10369819;28;20034;-58
2023/04/25 12:40:00;;;;;;;34.78;5.75;;;16.00;67.60;;;;;;10372813;28;20571;-58
2023/04/25 12:45:01;;;;;;;23.42;4.13;;;16.00;67.50;;;;;;10400395;28;20520;-57
2023/04/25 12:50:02;;;;;;;22.90;5.13;;;16.00;67.80;;;;;;10410091;28;20053;-59
2023/04/25 12:55:03;;;;;;;31.05;5.72;;;16.10;67.90;;;;;;10409926;28;20032;-59
2023/04/25 13:00:07;;;;;;;28.63;4.05;;;16.10;67.90;;;;;;10409673;28;20024;-58
2023/04/25 13:05:08;;;;;;;18.67;4.20;;;16.10;68.00;;;;;;10388157;28;20049;-59
2023/04/25 13:10:09;;;;;;;26.92;4.93;;;16.20;67.90;;;;;;10382892;28;20022;-59
2023/04/25 13:15:11;;;;;;;30.25;4.50;;;16.10;68.00;;;;;;10383145;28;20072;-59
2023/04/25 13:20:11;;;;;;;25.23;6.53;;;16.10;67.90;;;;;;10378833;28;20450;-58
2023/04/25 13:25:12;;;;;;;30.05;6.13;;;16.10;67.90;;;;;;10382115;28;20032;-60
2023/04/25 13:30:13;;;;;;;31.52;5.88;;;16.10;67.90;;;;;;10381153;28;20657;-59
2023/04/25 13:35:15;;;;;;;49.80;6.55;;;16.30;68.30;;;;;;10365962;28;20353;-61
2023/04/25 13:40:15;;;;;;;34.17;8.07;;;16.40;68.50;;;;;;10388082;28;20018;-60
2023/04/25 13:45:16;;;;;;;28.48;5.75;;;16.40;68.40;;;;;;10351024;28;20054;-59
2023/04/25 13:50:17;;;;;;;30.08;5.10;;;16.40;68.00;;;;;;10375023;28;20026;-60
2023/04/25 13:55:18;;;;;;;25.20;4.78;;;16.40;68.10;;;;;;10377781;28;20347;-60
2023/04/25 14:00:20;;;;;;;24.10;4.35;;;16.40;67.50;;;;;;10386675;28;20034;-59
2023/04/25 14:05:20;;;;;;;22.23;5.55;;;16.50;67.00;;;;;;10373657;28;20050;-59
2023/04/25 14:10:21;;;;;;;19.48;4.35;;;16.50;66.80;;;;;;10365827;28;20784;-59
2023/04/25 14:15:22;;;;;;;27.02;4.47;;;16.40;67.30;;;;;;10365719;28;20057;-57
2023/04/25 14:20:23;;;;;;;26.95;5.43;;;16.90;65.50;;;;;;10364620;28;20093;-58
2023/04/25 14:25:25;;;;;;;30.67;4.93;;;16.70;66.80;;;;;;10369205;28;20034;-55
2023/04/25 14:30:25;;;;;;;22.48;4.65;;;16.50;67.30;;;;;;10366410;28;20152;-58
2023/04/25 14:35:26;;;;;;;23.63;5.22;;;16.40;67.70;;;;;;10365138;28;20079;-57
2023/04/25 14:40:27;;;;;;;27.35;4.90;;;16.40;67.30;;;;;;10364830;28;20369;-58
2023/04/25 14:45:28;;;;;;;15.30;3.08;;;16.40;67.30;;;;;;10382004;28;20052;-58
2023/04/25 14:50:28;;;;;;;17.67;3.33;;;16.30;67.40;;;;;;10364120;28;20026;-59
2023/04/25 14:55:29;;;;;;;12.20;2.83;;;16.20;67.40;;;;;;10364413;28;20026;-57
2023/04/25 15:00:31;;;;;;;15.65;2.55;;;16.20;67.30;;;;;;10395395;28;20018;-58
2023/04/25 15:05:32;;;;;;;13.43;2.65;;;16.30;67.10;;;;;;10386575;28;20049;-57
2023/04/25 15:10:32;;;;;;;12.80;3.42;;;16.30;66.90;;;;;;10402440;28;20946;-58
2023/04/25 15:15:33;;;;;;;12.38;3.20;;;16.30;66.90;;;;;;10379992;28;20022;-56
2023/04/25 15:20:34;;;;;;;12.52;2.67;;;16.20;66.90;;;;;;10372489;28;20109;-59
2023/04/25 15:25:35;;;;;;;15.18;3.45;;;16.10;66.40;;;;;;10380703;28;20045;-60
2023/04/25 15:30:36;;;;;;;21.83;3.47;;;16.10;66.30;;;;;;10369108;28;20093;-59
2023/04/25 15:35:37;;;;;;;21.55;4.68;;;16.10;66.30;;;;;;10362705;28;20064;-62
2023/04/25 15:40:37;;;;;;;19.23;3.75;;;16.10;66.30;;;;;;10364290;28;20796;-57
2023/04/25 15:45:38;;;;;;;17.38;3.95;;;16.20;65.20;;;;;;10387608;28;20026;-60
2023/04/25 15:50:40;;;;;;;26.50;5.13;;;16.20;65.60;;;;;;10375819;28;20557;-59
2023/04/25 15:55:40;;;;;;;17.15;5.10;;;16.30;64.90;;;;;;10372530;28;20014;-61
2023/04/25 16:00:42;;;;;;;15.73;4.93;;;16.40;68.20;;;;;;10406029;28;20712;-61
2023/04/25 16:05:42;;;;;;;21.40;5.10;;;16.50;67.20;;;;;;10396251;28;20125;-62
2023/04/25 16:10:43;;;;;;;17.27;5.30;;;16.50;67.90;;;;;;10377113;28;20026;-61
2023/04/25 16:15:44;;;;;;;20.00;3.97;;;16.50;67.70;;;;;;10399302;28;20017;-61
2023/04/25 16:20:44;;;;;;;16.50;3.97;;;16.40;67.60;;;;;;10378132;28;20087;-60
2023/04/25 16:25:45;;;;;;;11.77;4.55;;;16.40;67.00;;;;;;10386325;28;20037;-61
2023/04/25 16:30:46;;;;;;;14.98;3.22;;;16.50;67.10;;;;;;10388404;28;20045;-59
2023/04/25 16:35:48;;;;;;;17.38;5.25;;;16.50;67.20;;;;;;10369636;28;20076;-61
2023/04/25 16:40:49;;;;;;;27.17;5.82;;;16.60;67.00;;;;;;10372062;28;20384;-59
2023/04/25 16:45:50;;;;;;;15.35;3.72;;;16.60;66.70;;;;;;10390490;28;20044;-60
2023/04/25 16:50:52;;;;;;;23.67;3.90;;;16.60;66.70;;;;;;10379790;28;20022;-59
2023/04/25 16:55:52;;;;;;;12.98;4.82;;;16.50;67.10;;;;;;10396738;28;20014;-59
2023/04/25 17:00:54;;;;;;;22.13;4.47;;;16.40;67.80;;;;;;10387900;28;20480;-60
2023/04/25 17:05:56;;;;;;;11.57;4.50;;;16.30;68.00;;;;;;10396350;28;20048;-59
2023/04/25 17:10:57;;;;;;;14.23;3.53;;;16.20;68.20;;;;;;10402089;28;20028;-59
2023/04/25 17:15:58;;;;;;;15.80;3.40;;;16.20;68.30;;;;;;10400416;28;20042;-60
2023/04/25 17:20:59;;;;;;;9.68;2.65;;;16.10;68.20;;;;;;10388431;28;20056;-59
2023/04/25 17:26:00;;;;;;;12.50;3.35;;;16.20;68.10;;;;;;10380228;28;20037;-60
2023/04/25 17:31:00;;;;;;;13.68;3.47;;;16.10;68.00;;;;;;10372385;28;20026;-60
2023/04/25 17:36:02;;;;;;;9.00;3.10;;;16.10;68.10;;;;;;10380206;28;20025;-58
2023/04/25 17:41:04;;;;;;;9.55;2.47;;;16.10;68.30;;;;;;10399837;28;20029;-59
2023/04/25 17:46:05;;;;;;;12.68;2.83;;;16.10;68.50;;;;;;10380438;28;20029;-60
2023/04/25 17:51:06;;;;;;;10.98;3.38;;;16.10;68.20;;;;;;10408359;28;20032;-60
2023/04/25 17:56:07;;;;;;;9.35;3.38;;;16.00;67.60;;;;;;10407943;28;20078;-59
2023/04/25 18:01:08;;;;;;;11.32;4.15;;;16.00;67.90;;;;;;10400904;28;20038;-59
2023/04/25 18:06:09;;;;;;;9.35;2.28;;;16.00;68.00;;;;;;10401231;28;20439;-60
2023/04/25 18:11:10;;;;;;;11.55;4.28;;;15.90;67.90;;;;;;10394951;28;20121;-60
2023/04/25 18:16:11;;;;;;;11.65;3.25;;;15.90;67.90;;;;;;10385491;28;20108;-60
2023/04/25 18:21:11;;;;;;;6.60;2.75;;;15.90;67.90;;;;;;10384857;28;20362;-59
2023/04/25 18:26:12;;;;;;;8.90;2.88;;;15.80;67.80;;;;;;10375307;28;20038;-58
2023/04/25 18:31:15;;;;;;;5.40;2.58;;;15.90;67.50;;;;;;10396060;28;20076;-59
2023/04/25 18:36:16;;;;;;;6.32;2.58;;;15.90;67.30;;;;;;10387153;28;20045;-57
2023/04/25 18:41:16;;;;;;;15.40;2.60;;;15.90;66.90;;;;;;10381426;28;20032;-58
2023/04/25 18:46:21;;;;;;;6.50;2.33;;;15.90;67.20;;;;;;10371535;28;20108;-58
2023/04/25 18:51:26;;;;;;;4.93;2.08;;;15.90;67.00;;;;;;10378443;28;20066;-57
2023/04/25 18:56:27;;;;;;;6.28;2.33;;;15.80;67.10;;;;;;10364801;28;20049;-59
2023/04/25 19:01:28;;;;;;;5.22;1.92;;;15.80;67.00;;;;;;10376761;28;20499;-59
2023/04/25 19:06:28;;;;;;;4.13;1.98;;;15.70;67.10;;;;;;10374905;28;20045;-58
2023/04/25 19:11:29;;;;;;;3.42;1.63;;;15.70;67.10;;;;;;10405688;28;20516;-59
2023/04/25 19:16:37;;;;;;;8.02;2.20;;;15.70;67.30;;;;;;10404842;28;20524;-60
2023/04/25 19:21:38;;;;;;;6.53;2.38;;;15.70;67.30;;;;;;10382070;28;20026;-59
2023/04/25 19:26:38;;;;;;;5.13;1.73;;;15.60;66.90;;;;;;10361837;28;20680;-60
2023/04/25 19:31:42;;;;;;;8.18;2.30;;;15.60;66.90;;;;;;10364095;28;20068;-60
2023/04/25 19:36:43;;;;;;;3.72;1.90;;;15.60;66.70;;;;;;10361940;28;20022;-60
2023/04/25 19:41:44;;;;;;;4.90;1.67;;;15.60;67.00;;;;;;10366225;28;20056;-60
2023/04/25 19:46:45;;;;;;;6.05;2.10;;;15.60;67.00;;;;;;10371110;28;20113;-59
2023/04/25 19:51:46;;;;;;;5.60;2.80;;;15.60;67.00;;;;;;10375362;28;20010;-59
2023/04/25 19:56:46;;;;;;;7.82;2.35;;;15.60;66.90;;;;;;10368576;28;20191;-60
2023/04/25 20:01:48;;;;;;;5.82;2.20;;;15.60;66.70;;;;;;10376415;28;20065;-60
2023/04/25 20:06:48;;;;;;;3.72;2.03;;;15.60;66.60;;;;;;10374025;28;20048;-60
2023/04/25 20:11:49;;;;;;;6.72;2.00;;;15.60;66.60;;;;;;10375351;28;20060;-60
2023/04/25 20:16:50;;;;;;;5.47;2.55;;;15.60;66.70;;;;;;10371268;28;20041;-59
2023/04/25 20:21:51;;;;;;;7.43;2.42;;;15.60;66.60;;;;;;10382541;28;20441;-61
2023/04/25 20:26:51;;;;;;;6.78;2.28;;;15.60;66.60;;;;;;10400682;28;20133;-60
2023/04/25 20:31:53;;;;;;;3.13;1.60;;;15.60;66.70;;;;;;10395801;28;20110;-56
2023/04/25 20:36:56;;;;;;;7.97;1.92;;;15.50;66.60;;;;;;10358048;28;20018;-60
2023/04/25 20:41:57;;;;;;;5.13;1.75;;;15.50;66.60;;;;;;10368072;28;20121;-60
2023/04/25 20:46:58;;;;;;;7.88;2.20;;;15.50;66.60;;;;;;10369477;28;20032;-60
2023/04/25 20:51:58;;;;;;;5.95;2.28;;;15.50;66.60;;;;;;10381470;28;20087;-61
2023/04/25 20:57:00;;;;;;;5.55;1.95;;;15.50;66.60;;;;;;10368498;28;20645;-60
2023/04/25 21:02:01;;;;;;;5.13;1.73;;;15.50;66.70;;;;;;10377549;28;20111;-60
2023/04/25 21:07:02;;;;;;;4.43;1.80;;;15.50;66.80;;;;;;10394540;28;20132;-60
2023/04/25 21:12:03;;;;;;;10.85;2.35;;;15.40;66.80;;;;;;10409503;28;20018;-60
2023/04/25 21:17:04;;;;;;;5.60;2.42;;;15.40;66.90;;;;;;10409297;28;20033;-59
2023/04/25 21:22:05;;;;;;;4.75;1.73;;;15.40;67.00;;;;;;10409071;28;20029;-60
2023/04/25 21:27:05;;;;;;;5.40;1.88;;;15.40;67.10;;;;;;10378923;28;20036;-60
2023/04/25 21:32:07;;;;;;;7.13;1.70;;;15.40;67.00;;;;;;10370497;28;20046;-60
2023/04/25 21:37:08;;;;;;;3.20;1.30;;;15.40;67.20;;;;;;10350300;28;20458;-60
2023/04/25 21:42:09;;;;;;;4.40;1.45;;;15.40;67.10;;;;;;10367169;28;20021;-60
2023/04/25 21:47:10;;;;;;;4.78;1.70;;;15.30;67.10;;;;;;10365837;28;20073;-60
2023/04/25 21:52:11;;;;;;;3.60;1.40;;;15.30;67.00;;;;;;10369364;28;20145;-59
2023/04/25 21:57:11;;;;;;;5.70;1.67;;;15.30;67.00;;;;;;10367129;28;20018;-60
2023/04/25 22:02:13;;;;;;;4.40;1.40;;;15.30;66.90;;;;;;10366345;28;20064;-61
2023/04/25 22:07:14;;;;;;;4.50;1.60;;;15.30;66.80;;;;;;10364617;28;20052;-60
2023/04/25 22:12:16;;;;;;;6.10;1.25;;;15.30;66.90;;;;;;10393882;28;20013;-61
2023/04/25 22:17:17;;;;;;;2.72;1.23;;;15.30;66.90;;;;;;10406628;28;20385;-60
2023/04/25 22:22:18;;;;;;;2.22;1.33;;;15.30;66.90;;;;;;10391780;28;20072;-58
2023/04/25 22:27:19;;;;;;;4.85;1.65;;;15.20;66.80;;;;;;10372089;28;20125;-60
2023/04/25 22:32:19;;;;;;;3.78;1.65;;;15.20;66.70;;;;;;10367298;28;20485;-60
2023/04/25 22:37:20;;;;;;;4.18;1.55;;;15.20;66.70;;;;;;10365687;28;20105;-59
2023/04/25 22:42:20;;;;;;;4.15;1.58;;;15.20;66.70;;;;;;10363974;28;20080;-60
2023/04/25 22:47:23;;;;;;;3.70;1.30;;;15.20;66.70;;;;;;10364839;28;20061;-60
2023/04/25 22:52:24;;;;;;;4.95;1.65;;;15.20;66.70;;;;;;10364310;28;20018;-61
2023/04/25 22:57:24;;;;;;;3.78;1.48;;;15.20;66.70;;;;;;10364535;28;20034;-59
2023/04/25 23:02:25;;;;;;;4.10;1.60;;;15.20;67.10;;;;;;10364707;28;20044;-60
2023/04/25 23:07:27;;;;;;;2.40;1.33;;;15.10;66.50;;;;;;10363936;28;20122;-60
2023/04/25 23:12:28;;;;;;;4.07;1.45;;;15.10;66.50;;;;;;10364152;28;20033;-60
2023/04/25 23:17:29;;;;;;;3.13;1.50;;;15.10;66.50;;;;;;10368540;28;20513;-60
2023/04/25 23:22:29;;;;;;;4.95;1.60;;;15.10;66.40;;;;;;10386419;28;20049;-60
2023/04/25 23:27:30;;;;;;;3.70;1.40;;;15.10;66.30;;;;;;10370296;28;20104;-60
2023/04/25 23:32:31;;;;;;;5.47;2.13;;;15.10;66.20;;;;;;10372995;28;20345;-60
2023/04/25 23:37:41;;;;;;;5.13;1.42;;;15.10;66.80;;;;;;10364091;28;20026;-61
2023/04/25 23:42:42;;;;;;;3.35;1.35;;;15.10;66.20;;;;;;10363811;28;20079;-61
2023/04/25 23:47:42;;;;;;;2.20;1.10;;;15.10;66.20;;;;;;10388399;28;20062;-60
2023/04/25 23:52:43;;;;;;;3.17;1.33;;;15.10;66.10;;;;;;10361814;28;20855;-60
2023/04/25 23:57:44;;;;;;;2.63;1.55;;;15.10;66.10;;;;;;10361846;28;20026;-61
